LDZD/ZAD METAR and TAF weather

Enter ICAO airport designator
Station Type Date Time Source
LDZD METAR 2022/07/01 01:30 UTC NOAA

LDZD 010130Z VRB02KT CAVOK 19/15 Q1013 NOSIG


Station Type Date Time Source
LDZD Decoded METAR 2022/07/01 01:30 UTC NOAA

Zadar / Zemunik, Croatia (LDZD) 44-06N 015-21E
Jun 30, 2022 - 09:30 PM EDT / 2022.07.01 0130 UTC
Wind: Variable at 2 MPH (2 KT):0
Visibility: greater than 7 mile(s):0
Temperature: 66 F (19 C)
Dew Point: 59 F (15 C)
Relative Humidity: 77%
Pressure (altimeter): 29.91 in. Hg (1013 hPa)
ob: LDZD 010130Z VRB02KT CAVOK 19/15 Q1013 NOSIG
cycle: 1

Station Type Date Time Source
LDZD TAF 2022/06/30 18:27 UTC NOAA

TAF LDZD 301725Z 3018/0118 VRB02KT CAVOK TX34/0113Z TN18/0103Z
BECMG 0108/0110 22009KT
TEMPO 0111/0117 28008KT
BECMG 0116/0118 VRB02KT

Example: see airport list